West Hills, California
Current Conditions -  °F | °C
As of 3:51 PM on Wednesday 22 Oct 2014 (Local Time) from KVNY Reporting Station
Clear Clear  
Wind Chill: 89°   Ceiling: Unl
Heat Index: 89°   Visibility: 10mi
Dew Point: 28°   Wind: 10mph
Humidity: 11%   Direction: 170°S
Pressure: 29.88"   Gusts: NA
Location:  34.2°N, 118.64°W
Report Text: KVNY 222251Z 17009KT 10SM CLR 32/M02 A2988 RMK AO2 SLP110 T03171022
Loading
Personal Weather Stations






























Interactive Weather Map
Tropical Storm Tracking
New forecast layout! Learn more

10-Day Weather Forecast

Advertisements
Track Severe Weather on mobile